Time;durP1;ratioP1;P1;durP2;ratioP2;P2;SDS_P1;SDS_P2;PMS_P1;PMS_P2;Temp;Humidity;BMP_temperature;BMP_pressure;BME280_temperature;BME280_humidity;BME280_pressure;Samples;Min_cycle;Max_cycle;Signal;HPM_P1;HPM_P2
2024/01/27 00:01:40;;;;;;;9.73;2.53;;;3.40;99.90;;;;;;4951007;28;20390;-65
2024/01/27 00:04:05;;;;;;;2.97;1.58;;;3.40;99.90;;;;;;4952554;28;20070;-63
2024/01/27 00:06:31;;;;;;;5.30;1.80;;;3.30;99.90;;;;;;4953212;28;20488;-64
2024/01/27 00:08:57;;;;;;;7.18;2.47;;;3.30;99.90;;;;;;4951518;28;20031;-65
2024/01/27 00:11:24;;;;;;;14.25;4.35;;;3.30;99.90;;;;;;4946147;28;20053;-64
2024/01/27 00:13:50;;;;;;;5.40;1.67;;;3.30;99.90;;;;;;4953971;28;20027;-63
2024/01/27 00:16:15;;;;;;;4.32;1.83;;;3.30;99.90;;;;;;4949695;28;20031;-64
2024/01/27 00:18:41;;;;;;;4.60;1.58;;;3.30;99.90;;;;;;4950732;28;20027;-64
2024/01/27 00:21:07;;;;;;;8.27;1.90;;;3.30;99.90;;;;;;4950713;28;20506;-64
2024/01/27 00:23:34;;;;;;;7.05;1.60;;;3.50;99.90;;;;;;4949617;28;20031;-65
2024/01/27 00:26:00;;;;;;;3.63;1.80;;;3.50;99.90;;;;;;4949150;28;20015;-65
2024/01/27 00:28:25;;;;;;;6.70;2.35;;;3.60;99.90;;;;;;4952513;28;20423;-64
2024/01/27 00:30:51;;;;;;;6.72;2.40;;;3.60;99.90;;;;;;4945315;28;20073;-64
2024/01/27 00:33:17;;;;;;;4.57;2.33;;;3.50;99.90;;;;;;4947109;28;20032;-64
2024/01/27 00:35:43;;;;;;;5.20;1.80;;;3.50;99.90;;;;;;4948879;28;20043;-65
2024/01/27 00:38:08;;;;;;;4.85;2.30;;;3.40;99.90;;;;;;4950447;28;20054;-64
2024/01/27 00:40:34;;;;;;;7.78;3.38;;;3.30;99.90;;;;;;4948016;28;20023;-64
2024/01/27 00:43:01;;;;;;;5.47;2.20;;;3.20;99.90;;;;;;4948051;28;20851;-64
2024/01/27 00:45:28;;;;;;;9.82;2.53;;;3.20;99.90;;;;;;4944869;28;20036;-65
2024/01/27 00:47:54;;;;;;;6.25;2.80;;;3.10;99.90;;;;;;4946474;28;20142;-64
2024/01/27 00:50:19;;;;;;;5.22;2.13;;;3.10;99.90;;;;;;4945732;28;20563;-65
2024/01/27 00:52:45;;;;;;;6.40;2.30;;;3.00;99.90;;;;;;4944204;28;20107;-65
2024/01/27 00:55:11;;;;;;;9.38;3.53;;;3.00;99.90;;;;;;4943944;28;20505;-64
2024/01/27 00:57:38;;;;;;;6.15;2.30;;;3.00;99.90;;;;;;4948097;28;20035;-64
2024/01/27 01:00:06;;;;;;;8.48;2.38;;;2.90;99.90;;;;;;4949175;28;20055;-64
2024/01/27 01:02:32;;;;;;;4.82;1.90;;;2.80;99.90;;;;;;4948596;28;20036;-65
2024/01/27 01:04:57;;;;;;;7.05;2.10;;;2.80;99.90;;;;;;4944100;28;20082;-64
2024/01/27 01:07:23;;;;;;;9.98;2.35;;;2.80;99.90;;;;;;4955828;28;20059;-64
2024/01/27 01:09:49;;;;;;;10.00;2.58;;;2.80;99.90;;;;;;4965892;28;20032;-64
2024/01/27 01:12:15;;;;;;;9.07;2.10;;;2.70;99.90;;;;;;4946168;28;20027;-65
2024/01/27 01:14:41;;;;;;;10.05;3.15;;;2.70;99.90;;;;;;4951816;28;20364;-63
2024/01/27 01:17:07;;;;;;;4.63;2.50;;;2.70;99.90;;;;;;4944762;28;20098;-64
2024/01/27 01:19:33;;;;;;;9.40;2.80;;;2.70;99.90;;;;;;4948047;28;20022;-64
2024/01/27 01:21:58;;;;;;;8.60;2.35;;;2.70;99.90;;;;;;4961433;28;20106;-64
2024/01/27 01:24:24;;;;;;;5.75;2.83;;;2.70;99.90;;;;;;4943892;28;20118;-65
2024/01/27 01:26:49;;;;;;;6.95;2.15;;;2.70;99.90;;;;;;4945029;28;20553;-64
2024/01/27 01:29:15;;;;;;;4.53;1.80;;;2.70;99.90;;;;;;4950273;28;20464;-65
2024/01/27 01:31:42;;;;;;;6.22;2.30;;;2.70;99.90;;;;;;4955637;28;20031;-64
2024/01/27 01:34:08;;;;;;;7.30;2.28;;;2.70;99.90;;;;;;4957361;28;20506;-64
2024/01/27 01:36:34;;;;;;;4.53;2.20;;;2.60;99.90;;;;;;4953819;28;20028;-64
2024/01/27 01:38:59;;;;;;;6.90;2.47;;;2.60;99.90;;;;;;4953591;28;20081;-64
2024/01/27 01:41:25;;;;;;;8.50;2.47;;;2.60;99.90;;;;;;4956789;28;20027;-65
2024/01/27 01:43:51;;;;;;;6.57;2.67;;;2.60;99.90;;;;;;4958694;28;20114;-63
2024/01/27 01:46:17;;;;;;;5.95;2.65;;;2.60;99.90;;;;;;4953272;28;20498;-64
2024/01/27 01:48:42;;;;;;;5.72;1.92;;;2.60;99.90;;;;;;4952839;28;20101;-64
2024/01/27 01:51:08;;;;;;;8.05;2.38;;;2.70;99.90;;;;;;4952707;28;20518;-64
2024/01/27 01:53:34;;;;;;;15.32;4.00;;;2.70;99.90;;;;;;4947200;28;20039;-65
2024/01/27 01:56:01;;;;;;;5.32;2.25;;;2.70;99.90;;;;;;4954013;28;20078;-65
2024/01/27 01:58:33;;;;;;;4.35;2.30;;;2.70;99.90;;;;;;4951987;28;20035;-64
2024/01/27 02:01:02;;;;;;;7.40;2.33;;;2.70;99.90;;;;;;4950017;28;20110;-63
2024/01/27 02:03:28;;;;;;;11.30;2.38;;;2.70;99.90;;;;;;4954889;28;20390;-65
2024/01/27 02:05:55;;;;;;;17.58;2.70;;;2.60;99.90;;;;;;4945540;28;20043;-64
2024/01/27 02:08:21;;;;;;;8.05;2.20;;;2.60;99.90;;;;;;4960945;28;20027;-64
2024/01/27 02:10:47;;;;;;;8.32;2.42;;;2.60;99.90;;;;;;4949789;28;20130;-63
2024/01/27 02:13:21;;;;;;;5.20;2.17;;;2.50;99.90;;;;;;4948240;28;20166;-63
2024/01/27 02:15:47;;;;;;;6.40;3.13;;;2.50;99.90;;;;;;4948190;28;20042;-65
2024/01/27 02:18:13;;;;;;;11.45;3.15;;;2.40;99.90;;;;;;4950958;28;20491;-64
2024/01/27 02:20:39;;;;;;;5.80;2.50;;;2.40;99.90;;;;;;4945826;28;20054;-64
2024/01/27 02:23:05;;;;;;;11.02;2.35;;;2.40;99.90;;;;;;4949438;28;20604;-64
2024/01/27 02:25:32;;;;;;;8.13;3.10;;;2.40;99.90;;;;;;4947795;28;20023;-65
2024/01/27 02:27:58;;;;;;;5.07;3.13;;;2.40;99.90;;;;;;4950525;28;20230;-65
2024/01/27 02:30:23;;;;;;;9.25;2.53;;;2.40;99.90;;;;;;4951466;28;20032;-65
2024/01/27 02:32:49;;;;;;;6.45;2.00;;;2.40;99.90;;;;;;4950459;28;20059;-65
2024/01/27 02:35:16;;;;;;;7.78;2.33;;;2.40;99.90;;;;;;4952521;28;20124;-65
2024/01/27 02:37:42;;;;;;;8.95;2.22;;;2.40;99.90;;;;;;4952338;28;20012;-64
2024/01/27 02:40:09;;;;;;;10.25;2.22;;;2.30;99.90;;;;;;4951793;28;21056;-64
2024/01/27 02:42:35;;;;;;;10.77;3.30;;;2.30;99.90;;;;;;4952413;28;20024;-64
2024/01/27 02:45:01;;;;;;;12.88;2.95;;;2.30;99.90;;;;;;4955720;28;20023;-64
2024/01/27 02:47:27;;;;;;;10.50;2.92;;;2.30;99.90;;;;;;4948380;28;20383;-64
2024/01/27 02:49:53;;;;;;;11.32;3.30;;;2.30;99.90;;;;;;4945510;29;20023;-64
2024/01/27 02:52:19;;;;;;;7.55;2.88;;;2.30;99.90;;;;;;4947879;28;20111;-64
2024/01/27 02:54:44;;;;;;;7.25;2.40;;;2.30;99.90;;;;;;4944262;28;20554;-64
2024/01/27 02:57:10;;;;;;;6.60;2.00;;;2.30;99.90;;;;;;4945692;28;20039;-64
2024/01/27 02:59:36;;;;;;;9.63;2.63;;;2.30;99.90;;;;;;4951997;28;20020;-65
2024/01/27 03:02:01;;;;;;;5.68;3.67;;;2.20;99.90;;;;;;4952287;28;20106;-64
2024/01/27 03:04:27;;;;;;;10.68;2.40;;;2.20;99.90;;;;;;4944944;28;20046;-64
2024/01/27 03:06:53;;;;;;;6.68;2.10;;;2.20;99.90;;;;;;4951864;28;20040;-64
2024/01/27 03:09:18;;;;;;;18.13;2.75;;;2.10;99.90;;;;;;4951025;28;20035;-64
2024/01/27 03:11:44;;;;;;;7.43;2.33;;;2.10;99.90;;;;;;4945115;28;20497;-65
2024/01/27 03:14:10;;;;;;;7.85;3.03;;;2.00;99.90;;;;;;4922441;29;20031;-64
2024/01/27 03:16:36;;;;;;;6.65;2.33;;;2.00;99.90;;;;;;4927911;29;20015;-64
2024/01/27 03:19:02;;;;;;;14.85;4.40;;;2.00;99.90;;;;;;4952980;28;20039;-64
2024/01/27 03:21:29;;;;;;;9.25;2.95;;;2.00;99.90;;;;;;4948821;28;20030;-64
2024/01/27 03:23:55;;;;;;;8.10;2.97;;;1.90;99.90;;;;;;4957055;28;20081;-64
2024/01/27 03:26:20;;;;;;;10.18;3.03;;;1.90;99.90;;;;;;4947622;28;20027;-65
2024/01/27 03:28:46;;;;;;;9.80;2.40;;;1.80;99.90;;;;;;4947447;28;20023;-64
2024/01/27 03:31:11;;;;;;;7.18;2.58;;;1.80;99.90;;;;;;4950026;28;20521;-64
2024/01/27 03:33:37;;;;;;;10.25;2.90;;;1.80;99.90;;;;;;4948814;28;20131;-64
2024/01/27 03:36:08;;;;;;;7.32;3.30;;;1.80;99.90;;;;;;4947770;28;20022;-65
2024/01/27 03:38:36;;;;;;;8.75;3.25;;;1.80;99.90;;;;;;4946076;28;20019;-63
2024/01/27 03:41:02;;;;;;;6.88;3.15;;;1.80;99.90;;;;;;4945670;28;20048;-64
2024/01/27 03:43:27;;;;;;;6.20;2.47;;;1.80;99.90;;;;;;4945448;28;20430;-64
2024/01/27 03:45:53;;;;;;;12.90;4.13;;;1.80;99.90;;;;;;4947956;28;20034;-64
2024/01/27 03:48:19;;;;;;;12.80;3.63;;;1.90;99.90;;;;;;4950351;28;20032;-64
2024/01/27 03:50:44;;;;;;;8.90;4.82;;;1.90;99.90;;;;;;4949252;28;20023;-64
2024/01/27 03:53:10;;;;;;;6.22;3.15;;;1.80;99.90;;;;;;4948530;28;20020;-64
2024/01/27 03:55:36;;;;;;;9.45;3.40;;;1.80;99.90;;;;;;4947100;28;20126;-65
2024/01/27 03:58:01;;;;;;;10.48;3.65;;;1.60;99.90;;;;;;4949315;28;20043;-64
2024/01/27 04:00:29;;;;;;;7.35;2.88;;;1.60;99.90;;;;;;4949106;28;20028;-64
2024/01/27 04:02:55;;;;;;;8.48;2.97;;;1.60;99.90;;;;;;4951345;28;20023;-64
2024/01/27 04:05:20;;;;;;;8.40;2.92;;;1.50;99.90;;;;;;4951689;28;20379;-64
2024/01/27 04:07:46;;;;;;;8.52;2.67;;;1.40;99.90;;;;;;4951115;28;20031;-65
2024/01/27 04:10:12;;;;;;;7.82;2.58;;;1.40;99.90;;;;;;4952315;28;20503;-64
2024/01/27 04:12:37;;;;;;;7.60;3.38;;;1.30;99.90;;;;;;4954749;28;20117;-64
2024/01/27 04:15:03;;;;;;;7.28;2.58;;;1.20;99.90;;;;;;4949880;28;20023;-63
2024/01/27 04:17:29;;;;;;;10.75;4.57;;;1.20;99.90;;;;;;4949397;28;20064;-65
2024/01/27 04:19:54;;;;;;;8.52;3.58;;;1.10;99.90;;;;;;4957045;28;20025;-63
2024/01/27 04:22:20;;;;;;;8.77;4.70;;;1.10;99.90;;;;;;4950565;28;20028;-63
2024/01/27 04:24:45;;;;;;;11.93;3.22;;;1.10;99.90;;;;;;4948547;28;20423;-64
2024/01/27 04:27:11;;;;;;;18.20;3.40;;;1.10;99.90;;;;;;4948179;28;20357;-64
2024/01/27 04:29:37;;;;;;;11.10;3.50;;;1.00;99.90;;;;;;4946120;28;20106;-64
2024/01/27 04:32:03;;;;;;;11.18;2.90;;;1.00;99.90;;;;;;4949156;28;20026;-65
2024/01/27 04:34:28;;;;;;;5.97;2.88;;;1.00;99.90;;;;;;4950794;28;20107;-64
2024/01/27 04:36:54;;;;;;;8.85;3.13;;;1.00;99.90;;;;;;4949191;28;20046;-63
2024/01/27 04:39:19;;;;;;;8.43;3.63;;;0.90;99.90;;;;;;4954672;28;20031;-64
2024/01/27 04:41:45;;;;;;;19.92;4.95;;;0.90;99.90;;;;;;4947649;28;20118;-64
2024/01/27 04:44:11;;;;;;;14.05;3.33;;;0.90;99.90;;;;;;4949765;28;20055;-64
2024/01/27 04:46:37;;;;;;;10.90;3.63;;;0.90;99.90;;;;;;4949254;28;20055;-64
2024/01/27 04:49:02;;;;;;;5.80;2.53;;;0.80;99.90;;;;;;4950929;28;20027;-65
2024/01/27 04:51:28;;;;;;;11.77;4.30;;;0.80;99.90;;;;;;4943658;28;20036;-64
2024/01/27 04:53:53;;;;;;;15.68;4.78;;;0.70;99.90;;;;;;4956286;28;20078;-64
2024/01/27 04:56:19;;;;;;;10.32;5.70;;;0.70;99.90;;;;;;4943469;28;20039;-64
2024/01/27 04:58:45;;;;;;;114.82;48.22;;;0.60;99.90;;;;;;4948827;28;20023;-64
2024/01/27 05:01:10;;;;;;;79.32;32.78;;;0.60;99.90;;;;;;4947738;28;20364;-64
2024/01/27 05:03:36;;;;;;;14.07;7.57;;;0.50;99.90;;;;;;4949621;28;20030;-64
2024/01/27 05:06:02;;;;;;;16.90;8.30;;;0.50;99.90;;;;;;4951217;28;20031;-63
2024/01/27 05:08:28;;;;;;;21.30;8.73;;;0.50;99.90;;;;;;4951408;28;20028;-65
2024/01/27 05:10:54;;;;;;;19.98;7.38;;;0.50;99.90;;;;;;4956409;28;20035;-64
2024/01/27 05:13:19;;;;;;;20.25;6.85;;;0.40;99.90;;;;;;4955047;28;20557;-63
2024/01/27 05:15:45;;;;;;;19.80;6.95;;;0.40;99.90;;;;;;4953667;28;20020;-63
2024/01/27 05:18:11;;;;;;;17.77;6.65;;;0.50;99.90;;;;;;4954877;28;20027;-63
2024/01/27 05:20:36;;;;;;;18.70;6.20;;;0.50;99.90;;;;;;4951077;28;20475;-64
2024/01/27 05:23:02;;;;;;;14.82;6.90;;;0.50;99.90;;;;;;4953245;28;20019;-63
2024/01/27 05:25:28;;;;;;;13.23;4.97;;;0.40;99.90;;;;;;4952466;28;20573;-64
2024/01/27 05:27:53;;;;;;;12.95;5.88;;;0.40;99.90;;;;;;4958363;28;20036;-63
2024/01/27 05:30:19;;;;;;;10.90;5.53;;;0.40;99.90;;;;;;4951073;28;20554;-64
2024/01/27 05:32:45;;;;;;;12.95;5.07;;;0.40;99.90;;;;;;4950393;28;20103;-63
2024/01/27 05:35:10;;;;;;;15.75;5.70;;;0.40;99.90;;;;;;4954362;28;20033;-63
2024/01/27 05:37:36;;;;;;;26.90;8.38;;;0.40;99.90;;;;;;4953947;28;20023;-64
2024/01/27 05:40:02;;;;;;;16.77;7.43;;;0.30;99.90;;;;;;4955747;28;20440;-63
2024/01/27 05:42:28;;;;;;;15.75;4.78;;;0.30;99.90;;;;;;4954431;28;20507;-63
2024/01/27 05:44:54;;;;;;;15.65;5.78;;;0.30;99.90;;;;;;4957777;28;20038;-64
2024/01/27 05:47:19;;;;;;;13.50;4.47;;;0.30;99.90;;;;;;4951197;28;20114;-64
2024/01/27 05:49:45;;;;;;;11.57;4.35;;;0.40;99.90;;;;;;4957990;28;20394;-63
2024/01/27 05:52:10;;;;;;;16.35;5.82;;;0.40;99.90;;;;;;4950529;28;20059;-64
2024/01/27 05:54:36;;;;;;;12.68;4.80;;;0.40;99.90;;;;;;4946960;28;20130;-64
2024/01/27 05:57:03;;;;;;;20.38;5.43;;;0.30;99.90;;;;;;4953732;28;20054;-64
2024/01/27 05:59:28;;;;;;;10.38;4.95;;;0.30;99.90;;;;;;4948834;28;20043;-65
2024/01/27 06:01:54;;;;;;;11.93;4.85;;;0.30;99.90;;;;;;4949654;28;20050;-63
2024/01/27 06:04:20;;;;;;;14.75;5.93;;;0.30;99.90;;;;;;4952790;28;20082;-63
2024/01/27 06:06:45;;;;;;;14.52;5.20;;;0.20;99.90;;;;;;4951261;28;20035;-63
2024/01/27 06:09:11;;;;;;;17.40;4.45;;;0.20;99.90;;;;;;4949906;28;20670;-63
2024/01/27 06:11:37;;;;;;;31.33;5.80;;;0.10;99.90;;;;;;4947882;28;20122;-63
2024/01/27 06:14:02;;;;;;;15.88;5.03;;;0.10;99.90;;;;;;4966448;28;20058;-64
2024/01/27 06:16:28;;;;;;;12.85;5.80;;;0.00;99.90;;;;;;4953459;28;20058;-63
2024/01/27 06:18:57;;;;;;;22.58;6.30;;;0.00;99.90;;;;;;4947659;28;20968;-64
2024/01/27 06:21:22;;;;;;;16.38;5.93;;;0.00;99.90;;;;;;4948026;28;20073;-63
2024/01/27 06:23:48;;;;;;;17.23;6.03;;;-0.10;99.90;;;;;;4947028;28;20062;-63
2024/01/27 06:26:14;;;;;;;14.82;5.00;;;-0.10;99.90;;;;;;4947091;28;20460;-64
2024/01/27 06:28:40;;;;;;;14.55;6.43;;;-0.10;99.90;;;;;;4944049;29;20019;-64
2024/01/27 06:31:07;;;;;;;20.95;10.90;;;-0.20;99.90;;;;;;4944648;28;20037;-64
2024/01/27 06:33:34;;;;;;;18.75;6.68;;;-0.20;99.90;;;;;;4945152;28;20059;-63
2024/01/27 06:36:00;;;;;;;12.32;6.03;;;-0.20;99.90;;;;;;4950207;28;20387;-63
2024/01/27 06:38:29;;;;;;;12.80;6.63;;;-0.20;99.90;;;;;;4951534;28;20031;-64
2024/01/27 06:40:54;;;;;;;17.45;7.68;;;-0.20;99.90;;;;;;4951205;28;20031;-63
2024/01/27 06:43:20;;;;;;;11.93;6.22;;;-0.30;99.90;;;;;;4951883;28;20051;-62
2024/01/27 06:45:45;;;;;;;20.77;7.68;;;-0.30;99.90;;;;;;4954315;28;20126;-63
2024/01/27 06:48:11;;;;;;;19.40;8.07;;;-0.20;99.90;;;;;;4947006;28;20023;-63
2024/01/27 06:50:37;;;;;;;14.95;6.55;;;-0.20;99.90;;;;;;4955049;28;20031;-63
2024/01/27 06:53:02;;;;;;;13.52;7.18;;;-0.20;99.90;;;;;;4953136;28;20106;-63
2024/01/27 06:55:28;;;;;;;12.70;6.65;;;-0.20;99.90;;;;;;4953019;28;20581;-63
2024/01/27 06:57:54;;;;;;;21.45;7.50;;;-0.20;99.90;;;;;;4944974;28;20044;-63
2024/01/27 07:00:20;;;;;;;21.02;7.43;;;-0.20;99.90;;;;;;4945635;28;20020;-63
2024/01/27 07:02:45;;;;;;;14.45;5.53;;;-0.10;99.90;;;;;;4966809;28;20031;-63
2024/01/27 07:05:14;;;;;;;12.63;6.25;;;-0.10;99.90;;;;;;4948015;28;20082;-63
2024/01/27 07:07:40;;;;;;;14.98;6.30;;;-0.10;99.90;;;;;;4950783;28;20050;-62
2024/01/27 07:10:07;;;;;;;12.98;5.15;;;-0.10;99.90;;;;;;4950123;28;20060;-63
2024/01/27 07:12:34;;;;;;;11.90;6.38;;;-0.10;99.90;;;;;;4944950;28;20035;-66
2024/01/27 07:15:00;;;;;;;17.50;4.70;;;0.00;99.90;;;;;;4953458;28;20495;-64
2024/01/27 07:17:29;;;;;;;14.23;4.93;;;0.00;99.90;;;;;;4954840;28;20037;-63
2024/01/27 07:19:55;;;;;;;15.35;6.15;;;0.00;99.90;;;;;;4940819;29;20075;-63
2024/01/27 07:22:20;;;;;;;16.08;6.40;;;0.00;99.90;;;;;;4942518;28;20436;-63
2024/01/27 07:24:46;;;;;;;20.25;6.13;;;0.00;99.90;;;;;;4952881;28;20106;-63
2024/01/27 07:27:13;;;;;;;18.77;5.10;;;-0.10;99.90;;;;;;4946423;28;20023;-64
2024/01/27 07:29:39;;;;;;;10.75;3.83;;;-0.20;99.90;;;;;;4948700;28;20039;-63
2024/01/27 07:32:07;;;;;;;13.43;6.28;;;-0.30;99.90;;;;;;4947928;28;20019;-63
2024/01/27 07:34:33;;;;;;;10.43;3.90;;;-0.40;99.90;;;;;;4952872;28;20021;-63
2024/01/27 07:36:59;;;;;;;12.35;4.70;;;-0.40;99.90;;;;;;4949940;28;20390;-63
2024/01/27 07:39:24;;;;;;;9.23;3.97;;;-0.40;99.90;;;;;;4948266;28;20019;-63
2024/01/27 07:41:50;;;;;;;7.07;3.70;;;-0.50;99.90;;;;;;4946515;28;20059;-63
2024/01/27 07:44:18;;;;;;;14.02;4.22;;;-0.50;99.90;;;;;;4948063;28;20039;-63
2024/01/27 07:46:43;;;;;;;8.30;4.28;;;-0.40;99.90;;;;;;4947461;28;20382;-63
2024/01/27 07:49:12;;;;;;;13.38;5.57;;;-0.40;99.90;;;;;;4947821;28;20106;-63
2024/01/27 07:51:38;;;;;;;12.75;4.72;;;-0.30;99.90;;;;;;4947773;28;20031;-63
2024/01/27 07:54:03;;;;;;;8.88;4.53;;;-0.30;99.90;;;;;;4948889;28;20046;-62
2024/01/27 07:56:29;;;;;;;19.27;4.75;;;-0.30;99.90;;;;;;4947046;28;20055;-63
2024/01/27 07:58:55;;;;;;;25.60;5.43;;;-0.20;99.90;;;;;;4942709;28;20008;-63
2024/01/27 08:01:20;;;;;;;13.05;6.40;;;-0.10;99.90;;;;;;4946776;28;20546;-63
2024/01/27 08:03:46;;;;;;;11.20;5.15;;;-0.10;99.90;;;;;;4950841;28;20549;-63
2024/01/27 08:06:19;;;;;;;11.50;5.53;;;0.00;99.90;;;;;;4940786;28;20538;-63
2024/01/27 08:08:46;;;;;;;13.63;5.55;;;0.00;99.90;;;;;;4942958;28;20035;-63
2024/01/27 08:11:12;;;;;;;12.63;6.65;;;0.10;99.90;;;;;;4946397;28;20445;-62
2024/01/27 08:13:38;;;;;;;7.38;5.82;;;0.10;99.90;;;;;;4947174;28;20245;-63
2024/01/27 08:16:05;;;;;;;12.27;5.80;;;0.10;99.90;;;;;;4945450;28;20150;-64
2024/01/27 08:18:31;;;;;;;13.02;5.57;;;0.20;99.90;;;;;;4949264;28;20031;-65
2024/01/27 08:20:56;;;;;;;14.90;5.30;;;0.20;99.90;;;;;;4954241;28;20518;-63
2024/01/27 08:23:23;;;;;;;12.73;5.18;;;0.30;99.90;;;;;;4950109;28;20031;-63
2024/01/27 08:25:52;;;;;;;9.43;5.35;;;0.40;99.90;;;;;;4953089;28;20031;-63
2024/01/27 08:28:18;;;;;;;13.18;5.30;;;0.40;99.90;;;;;;4952646;28;20028;-63
2024/01/27 08:30:44;;;;;;;7.38;5.45;;;0.50;99.90;;;;;;4945129;28;20030;-63
2024/01/27 08:33:10;;;;;;;13.88;7.47;;;0.60;99.90;;;;;;4949220;28;20027;-63
2024/01/27 08:35:35;;;;;;;65.68;27.08;;;0.60;99.90;;;;;;4947778;28;20078;-63
2024/01/27 08:38:03;;;;;;;48.38;22.15;;;0.70;99.90;;;;;;4945012;28;20020;-63
2024/01/27 08:40:29;;;;;;;58.00;25.38;;;0.80;99.90;;;;;;4959041;28;20026;-64
2024/01/27 08:42:54;;;;;;;54.92;23.67;;;0.90;99.90;;;;;;4945840;28;20027;-63
2024/01/27 08:45:20;;;;;;;24.15;12.18;;;1.00;99.90;;;;;;4943191;28;20491;-63
2024/01/27 08:47:46;;;;;;;23.33;8.77;;;1.10;99.90;;;;;;4945737;28;20164;-63
2024/01/27 08:50:11;;;;;;;24.92;9.18;;;1.20;99.90;;;;;;4940212;29;20097;-63
2024/01/27 08:52:37;;;;;;;16.25;9.32;;;1.30;99.90;;;;;;4945521;28;20019;-64
2024/01/27 08:55:03;;;;;;;14.65;5.90;;;1.40;99.90;;;;;;4939621;28;20032;-64
2024/01/27 08:57:28;;;;;;;17.13;4.63;;;1.50;99.90;;;;;;4938736;28;20043;-64
2024/01/27 08:59:54;;;;;;;8.90;4.60;;;1.60;99.90;;;;;;4939162;28;20511;-63
2024/01/27 09:02:20;;;;;;;7.88;4.18;;;1.70;99.90;;;;;;4940368;28;20024;-64
2024/01/27 09:04:45;;;;;;;14.35;4.43;;;1.80;99.90;;;;;;4945461;28;20030;-63
2024/01/27 09:07:12;;;;;;;9.30;5.13;;;1.90;99.90;;;;;;4946802;28;20062;-63
2024/01/27 09:09:40;;;;;;;9.07;5.22;;;2.00;99.90;;;;;;4948047;28;20027;-64
2024/01/27 09:12:06;;;;;;;14.25;4.07;;;2.10;99.90;;;;;;4947534;28;20035;-63
2024/01/27 09:14:33;;;;;;;16.58;5.22;;;2.20;99.90;;;;;;4944769;28;20031;-64
2024/01/27 09:17:00;;;;;;;13.35;5.53;;;2.30;99.90;;;;;;4944941;28;20174;-64
2024/01/27 09:19:26;;;;;;;9.45;4.53;;;2.40;99.90;;;;;;4948247;28;20019;-63
2024/01/27 09:21:51;;;;;;;13.75;4.82;;;2.40;99.90;;;;;;4948046;28;20038;-64
2024/01/27 09:24:17;;;;;;;8.43;4.38;;;2.60;99.90;;;;;;4946678;28;20027;-64
2024/01/27 09:26:43;;;;;;;10.85;3.20;;;3.00;99.90;;;;;;4941219;28;20035;-64
2024/01/27 09:29:09;;;;;;;8.88;3.13;;;3.90;99.90;;;;;;4948990;28;20046;-65
2024/01/27 09:31:35;;;;;;;12.77;4.47;;;5.10;99.90;;;;;;4947165;28;20035;-65
2024/01/27 09:34:01;;;;;;;8.05;3.38;;;6.50;99.90;;;;;;4945129;28;20040;-65
2024/01/27 09:36:28;;;;;;;7.47;3.60;;;7.60;99.90;;;;;;4944672;28;20159;-64
2024/01/27 09:38:54;;;;;;;13.88;4.32;;;8.50;99.90;;;;;;4946967;28;20173;-65
2024/01/27 09:41:20;;;;;;;7.15;3.25;;;9.20;99.90;;;;;;4946265;28;20107;-64
2024/01/27 09:43:47;;;;;;;6.10;3.35;;;9.90;99.90;;;;;;4944990;28;20020;-65
2024/01/27 09:46:14;;;;;;;11.00;4.00;;;10.50;99.90;;;;;;4945281;28;20027;-66
2024/01/27 09:48:40;;;;;;;12.18;5.55;;;11.00;99.90;;;;;;4946793;28;20075;-65
2024/01/27 09:51:08;;;;;;;7.07;2.33;;;11.70;99.90;;;;;;4946035;28;20063;-65
2024/01/27 09:53:35;;;;;;;9.40;3.42;;;12.00;95.70;;;;;;4946948;28;20114;-65
2024/01/27 09:56:01;;;;;;;8.82;4.05;;;12.10;93.10;;;;;;4947942;28;20082;-65
2024/01/27 09:58:28;;;;;;;8.75;3.80;;;12.00;94.10;;;;;;4948123;28;20542;-66
2024/01/27 10:00:56;;;;;;;6.78;3.22;;;12.20;92.70;;;;;;4952873;28;20039;-66
2024/01/27 10:03:27;;;;;;;6.05;3.83;;;11.90;89.60;;;;;;4950168;28;20043;-65
2024/01/27 10:05:55;;;;;;;6.97;3.45;;;11.20;91.80;;;;;;4950186;28;20037;-65
2024/01/27 10:08:24;;;;;;;4.82;2.17;;;10.70;93.20;;;;;;4951585;28;20712;-65
2024/01/27 10:10:55;;;;;;;5.75;2.42;;;10.40;95.60;;;;;;4950242;28;20073;-65
2024/01/27 10:13:26;;;;;;;7.45;3.05;;;9.40;95.60;;;;;;4948220;28;20519;-65
2024/01/27 10:16:11;;;;;;;7.18;2.75;;;8.40;99.90;;;;;;4947752;28;20032;-65
2024/01/27 10:18:37;;;;;;;12.45;2.92;;;7.70;99.90;;;;;;4960956;28;20039;-65
2024/01/27 10:21:13;;;;;;;13.82;2.13;;;7.40;99.90;;;;;;4947069;28;20089;-64
2024/01/27 10:23:40;;;;;;;13.93;2.70;;;7.20;99.90;;;;;;4948672;28;20122;-65
2024/01/27 10:26:08;;;;;;;6.03;2.65;;;7.00;99.90;;;;;;4945861;28;20107;-66
2024/01/27 10:28:34;;;;;;;7.70;3.40;;;6.90;99.90;;;;;;4947342;28;20418;-66
2024/01/27 10:31:12;;;;;;;12.82;3.70;;;7.10;99.90;;;;;;4948425;28;20046;-66
2024/01/27 10:33:38;;;;;;;8.10;3.63;;;7.20;99.90;;;;;;4944937;28;20074;-65
2024/01/27 10:36:04;;;;;;;6.38;2.55;;;7.40;99.90;;;;;;4944069;28;20028;-65
2024/01/27 10:38:37;;;;;;;15.25;3.08;;;7.30;99.90;;;;;;4946047;28;20034;-65
2024/01/27 10:41:07;;;;;;;5.82;2.25;;;7.30;99.90;;;;;;4950289;28;20027;-65
2024/01/27 10:43:35;;;;;;;6.17;2.07;;;7.60;99.90;;;;;;4949841;28;20028;-64
2024/01/27 10:46:06;;;;;;;7.90;3.95;;;7.50;99.90;;;;;;4950538;28;20051;-63
2024/01/27 10:48:35;;;;;;;23.88;12.50;;;7.60;99.90;;;;;;4949161;28;20126;-63
2024/01/27 10:51:07;;;;;;;15.25;5.20;;;7.50;99.90;;;;;;4947136;28;20054;-65
2024/01/27 10:53:35;;;;;;;10.63;3.58;;;7.50;99.90;;;;;;4945189;28;20058;-64
2024/01/27 10:56:06;;;;;;;17.42;5.95;;;7.60;99.90;;;;;;4949326;28;20027;-65
2024/01/27 10:58:40;;;;;;;7.03;2.00;;;7.60;99.90;;;;;;4950079;28;20046;-64
2024/01/27 11:01:11;;;;;;;7.38;2.10;;;7.60;99.90;;;;;;4950608;28;20063;-65
2024/01/27 11:03:39;;;;;;;11.95;4.15;;;7.60;99.90;;;;;;4950221;28;20094;-65
2024/01/27 11:06:06;;;;;;;13.70;5.15;;;7.80;99.90;;;;;;4951224;28;20035;-65
2024/01/27 11:08:34;;;;;;;16.95;7.15;;;7.90;99.90;;;;;;4950848;28;20106;-65
2024/01/27 11:11:01;;;;;;;9.18;4.43;;;8.10;99.90;;;;;;4950151;28;20063;-65
2024/01/27 11:13:30;;;;;;;11.30;4.60;;;8.20;99.90;;;;;;4948149;28;20019;-66
2024/01/27 11:15:56;;;;;;;7.93;2.22;;;8.30;99.90;;;;;;4949060;28;20180;-64
2024/01/27 11:18:22;;;;;;;10.02;1.73;;;8.30;99.90;;;;;;4948200;28;20055;-64
2024/01/27 11:20:47;;;;;;;6.05;2.03;;;8.30;99.90;;;;;;4948869;28;20830;-65
2024/01/27 11:23:16;;;;;;;7.53;2.42;;;8.20;99.90;;;;;;4949813;28;20023;-63
2024/01/27 11:25:42;;;;;;;7.70;2.55;;;8.10;99.90;;;;;;4949705;28;20032;-64
2024/01/27 11:28:16;;;;;;;7.95;2.97;;;8.00;99.90;;;;;;4943478;28;20035;-64
2024/01/27 11:30:46;;;;;;;15.93;2.40;;;8.00;99.90;;;;;;4943945;28;20086;-65
2024/01/27 11:33:12;;;;;;;6.90;2.10;;;7.90;99.90;;;;;;4947395;28;20079;-64
2024/01/27 11:35:38;;;;;;;13.32;2.80;;;8.00;99.90;;;;;;4949545;28;20451;-65
2024/01/27 11:38:04;;;;;;;8.38;3.33;;;8.00;99.90;;;;;;4950346;28;20109;-65
2024/01/27 11:40:30;;;;;;;9.23;2.50;;;8.10;99.90;;;;;;4948795;28;20106;-65
2024/01/27 11:43:00;;;;;;;12.38;3.25;;;8.10;99.90;;;;;;4950312;28;20121;-64
2024/01/27 11:45:29;;;;;;;13.20;7.18;;;8.00;99.90;;;;;;4948979;28;20454;-65
2024/01/27 11:47:56;;;;;;;11.43;3.45;;;7.90;99.90;;;;;;4946691;28;20455;-63
2024/01/27 11:50:22;;;;;;;8.27;2.17;;;7.70;99.90;;;;;;4947975;28;20086;-63
2024/01/27 11:52:48;;;;;;;9.05;3.83;;;7.60;99.90;;;;;;4949424;28;20066;-64
2024/01/27 11:55:15;;;;;;;6.55;2.03;;;7.50;99.90;;;;;;4942325;28;20059;-64
2024/01/27 11:57:41;;;;;;;8.85;2.42;;;7.50;99.90;;;;;;4942385;28;20039;-63
2024/01/27 12:00:09;;;;;;;7.78;2.42;;;7.50;99.90;;;;;;4945153;28;20032;-64
2024/01/27 12:02:35;;;;;;;10.68;2.70;;;7.40;99.90;;;;;;4946546;28;20023;-65
2024/01/27 12:05:01;;;;;;;7.80;2.00;;;7.50;99.90;;;;;;4947438;28;20023;-64
2024/01/27 12:07:27;;;;;;;7.05;2.15;;;7.60;99.90;;;;;;4950947;28;20031;-64
2024/01/27 12:09:53;;;;;;;6.72;1.73;;;7.80;99.90;;;;;;4952928;28;20909;-63
2024/01/27 12:12:20;;;;;;;9.00;2.15;;;7.90;99.90;;;;;;4950511;28;20043;-63
2024/01/27 12:14:50;;;;;;;7.47;1.88;;;8.00;99.90;;;;;;4948864;28;20058;-64
2024/01/27 12:17:17;;;;;;;9.80;1.73;;;8.10;99.90;;;;;;4948264;28;20492;-63
2024/01/27 12:19:54;;;;;;;8.10;2.05;;;8.30;99.90;;;;;;4948061;28;20066;-64
2024/01/27 12:22:28;;;;;;;7.97;2.75;;;8.70;99.90;;;;;;4951357;28;20038;-64
2024/01/27 12:25:09;;;;;;;8.35;4.32;;;9.00;99.90;;;;;;4949327;28;20031;-65
2024/01/27 12:27:35;;;;;;;8.55;2.63;;;9.20;99.90;;;;;;4943564;28;20038;-64
2024/01/27 12:30:01;;;;;;;7.97;2.55;;;9.00;99.90;;;;;;4944123;28;20071;-64
2024/01/27 12:32:27;;;;;;;9.05;3.88;;;8.80;99.90;;;;;;4947935;28;20101;-64
2024/01/27 12:34:53;;;;;;;11.18;2.50;;;8.50;99.90;;;;;;4950182;28;20035;-64
2024/01/27 12:37:21;;;;;;;13.35;4.05;;;8.10;99.90;;;;;;4946982;28;20027;-63
2024/01/27 12:39:50;;;;;;;10.80;2.53;;;8.00;99.90;;;;;;4953797;28;20039;-62
2024/01/27 12:42:16;;;;;;;7.43;1.75;;;7.70;99.90;;;;;;4951777;28;20035;-64
2024/01/27 12:44:42;;;;;;;7.78;2.35;;;7.60;99.90;;;;;;4951138;28;20050;-64
2024/01/27 12:47:10;;;;;;;11.48;2.92;;;7.60;99.90;;;;;;4946189;28;20027;-64